createdAt,value
2018-08-31T00:01:01.959Z,1.70
2018-08-31T00:06:15.581Z,2.60
2018-08-31T00:11:28.297Z,2.13
2018-08-31T00:16:30.481Z,2.57
2018-08-31T00:21:32.578Z,1.63
2018-08-31T00:26:46.445Z,2.07
2018-08-31T00:32:03.658Z,1.67
2018-08-31T00:39:19.716Z,1.70
2018-08-31T00:44:32.262Z,2.20
2018-08-31T00:49:34.391Z,2.17
2018-08-31T00:54:36.566Z,1.43
2018-08-31T00:59:38.689Z,1.37
2018-08-31T01:04:41.001Z,1.30
2018-08-31T01:09:43.133Z,1.43
2018-08-31T01:14:45.306Z,1.80
2018-08-31T01:19:47.406Z,1.50
2018-08-31T01:24:49.548Z,1.30
2018-08-31T01:29:52.019Z,1.80
2018-08-31T01:34:54.179Z,1.77
2018-08-31T01:39:56.351Z,1.63
2018-08-31T01:44:58.535Z,1.70
2018-08-31T01:50:00.886Z,1.70
2018-08-31T01:55:03.041Z,1.57
2018-08-31T02:00:05.219Z,2.00
2018-08-31T02:05:07.376Z,1.97
2018-08-31T02:10:09.534Z,1.70
2018-08-31T02:15:11.707Z,2.20
2018-08-31T02:20:13.831Z,2.33
2018-08-31T02:25:15.964Z,2.03
2018-08-31T02:30:18.086Z,1.93
2018-08-31T02:35:20.230Z,1.57
2018-08-31T02:40:22.375Z,1.47
2018-08-31T02:45:24.885Z,1.20
2018-08-31T02:50:27.019Z,1.60
2018-08-31T02:55:29.135Z,1.50
2018-08-31T03:00:31.274Z,1.80
2018-08-31T03:05:33.369Z,2.13
2018-08-31T03:10:35.508Z,1.57
2018-08-31T03:15:37.693Z,2.33
2018-08-31T03:20:39.799Z,1.40
2018-08-31T03:25:41.924Z,2.00
2018-08-31T03:30:44.041Z,2.33
2018-08-31T03:35:46.168Z,1.70
2018-08-31T03:40:48.291Z,1.80
2018-08-31T03:45:50.410Z,1.90
2018-08-31T03:50:52.645Z,1.73
2018-08-31T03:55:54.696Z,2.07
2018-08-31T04:00:56.849Z,1.83
2018-08-31T04:05:58.970Z,1.63
2018-08-31T04:11:01.098Z,1.93
2018-08-31T04:16:03.268Z,1.83
2018-08-31T04:21:05.395Z,1.47
2018-08-31T04:26:07.494Z,1.90
2018-08-31T04:31:09.625Z,2.07
2018-08-31T04:36:11.721Z,2.00
2018-08-31T04:41:13.888Z,2.23
2018-08-31T04:46:15.991Z,1.80
2018-08-31T04:51:18.240Z,1.90
2018-08-31T04:56:20.355Z,1.60
2018-08-31T05:01:22.709Z,1.97
2018-08-31T05:06:24.827Z,2.13
2018-08-31T05:11:27.094Z,1.90
2018-08-31T05:16:29.253Z,2.40
2018-08-31T05:21:31.438Z,1.93
2018-08-31T05:26:33.585Z,1.50
2018-08-31T05:31:35.704Z,1.40
2018-08-31T05:36:37.821Z,2.13
2018-08-31T05:41:40.714Z,1.73
2018-08-31T05:46:42.918Z,2.20
2018-08-31T05:51:45.078Z,1.70
2018-08-31T05:56:47.215Z,1.90
2018-08-31T06:01:49.332Z,1.83
2018-08-31T06:06:51.480Z,2.17
2018-08-31T06:11:53.662Z,2.40
2018-08-31T06:16:55.781Z,2.13
2018-08-31T06:21:57.907Z,1.97
2018-08-31T06:27:00.004Z,1.90
2018-08-31T06:32:02.595Z,2.00
2018-08-31T06:37:05.172Z,1.50
2018-08-31T06:42:07.329Z,1.93
2018-08-31T06:47:09.438Z,1.87
2018-08-31T06:52:11.604Z,1.50
2018-08-31T06:57:13.770Z,1.77
2018-08-31T07:02:15.905Z,2.30
2018-08-31T07:07:18.082Z,2.40
2018-08-31T07:12:20.283Z,2.70
2018-08-31T07:17:22.346Z,2.10
2018-08-31T07:22:24.503Z,1.80
2018-08-31T07:27:26.648Z,2.17
2018-08-31T07:32:28.825Z,2.17
2018-08-31T07:37:31.041Z,3.00
2018-08-31T07:42:33.118Z,2.50
2018-08-31T07:47:35.343Z,3.03
2018-08-31T07:52:37.483Z,2.93
2018-08-31T07:57:39.639Z,3.10
2018-08-31T08:02:41.799Z,2.40
2018-08-31T08:07:43.931Z,2.30
2018-08-31T08:12:46.279Z,2.47
2018-08-31T08:17:48.430Z,2.10
2018-08-31T08:22:50.562Z,2.90
2018-08-31T08:27:52.819Z,2.80
2018-08-31T08:32:54.966Z,3.40
2018-08-31T08:37:57.176Z,3.50
2018-08-31T08:42:59.422Z,3.93
2018-08-31T08:48:01.593Z,2.80
2018-08-31T08:53:04.090Z,2.97
2018-08-31T08:58:06.368Z,2.87
2018-08-31T09:03:08.527Z,3.20
2018-08-31T09:08:10.645Z,2.83
2018-08-31T09:13:12.787Z,3.30
2018-08-31T09:18:15.032Z,3.20
2018-08-31T09:23:17.174Z,3.60
2018-08-31T09:28:19.355Z,3.50
2018-08-31T09:33:21.550Z,3.57
2018-08-31T09:38:23.746Z,3.90
2018-08-31T09:43:25.921Z,4.20
2018-08-31T09:48:28.116Z,5.20
2018-08-31T09:53:30.306Z,4.40
2018-08-31T09:58:32.561Z,4.40
2018-08-31T10:03:34.687Z,4.13
2018-08-31T10:08:36.929Z,3.60
2018-08-31T10:13:39.108Z,4.50
2018-08-31T10:18:41.371Z,4.60
2018-08-31T10:23:43.451Z,4.57
2018-08-31T10:28:45.660Z,4.40
2018-08-31T10:33:47.799Z,4.60
2018-08-31T10:38:49.919Z,4.83
2018-08-31T10:43:52.127Z,5.10
2018-08-31T10:48:54.312Z,4.50
2018-08-31T10:53:56.511Z,4.17
2018-08-31T10:58:58.707Z,4.80
2018-08-31T11:04:00.839Z,4.37
2018-08-31T11:09:04.523Z,4.60
2018-08-31T11:14:06.672Z,4.13
2018-08-31T11:19:08.848Z,5.70
2018-08-31T11:24:11.017Z,5.20
2018-08-31T11:29:13.189Z,5.00
2018-08-31T11:34:15.312Z,5.10
2018-08-31T11:39:17.510Z,4.23
2018-08-31T11:44:19.663Z,5.10
2018-08-31T11:49:21.819Z,4.10
2018-08-31T11:54:24.012Z,4.73
2018-08-31T11:59:26.181Z,4.90
2018-08-31T12:04:28.360Z,3.80
2018-08-31T12:09:30.509Z,3.93
2018-08-31T12:14:32.657Z,4.60
2018-08-31T12:19:34.919Z,4.70
2018-08-31T12:24:37.146Z,5.87
2018-08-31T12:29:39.332Z,4.27
2018-08-31T12:34:41.509Z,3.90
2018-08-31T12:39:43.686Z,3.40
2018-08-31T12:44:45.826Z,4.20
2018-08-31T12:49:47.980Z,4.70
2018-08-31T12:54:50.214Z,4.20
2018-08-31T12:59:58.912Z,4.33
2018-08-31T13:05:01.596Z,3.27
2018-08-31T13:10:03.809Z,4.63
2018-08-31T13:15:06.073Z,3.50
2018-08-31T13:20:08.314Z,4.77
2018-08-31T13:25:10.546Z,4.57
2018-08-31T13:30:12.667Z,4.03
2018-08-31T13:35:14.852Z,4.57
2018-08-31T13:40:17.052Z,3.73
2018-08-31T13:45:19.240Z,4.47
2018-08-31T13:50:21.654Z,4.70
2018-08-31T13:55:24.203Z,4.80
2018-08-31T14:00:26.368Z,4.23
2018-08-31T14:05:28.575Z,4.20
2018-08-31T14:10:30.727Z,5.27
2018-08-31T14:15:32.911Z,3.77
2018-08-31T14:20:35.117Z,4.10
2018-08-31T14:25:37.486Z,3.70
2018-08-31T14:30:39.606Z,4.00
2018-08-31T14:35:41.859Z,4.17
2018-08-31T14:40:44.046Z,4.40
2018-08-31T14:45:46.226Z,3.93
2018-08-31T14:50:48.527Z,3.60
2018-08-31T14:55:50.819Z,4.27
2018-08-31T15:00:53.058Z,3.47
2018-08-31T15:05:55.234Z,4.00
2018-08-31T15:10:57.439Z,3.33
2018-08-31T15:15:59.624Z,3.30
2018-08-31T15:21:01.866Z,3.40
2018-08-31T15:26:04.096Z,3.67
2018-08-31T15:31:06.237Z,3.50
2018-08-31T15:36:08.425Z,3.40
2018-08-31T15:41:10.605Z,2.83
2018-08-31T15:46:12.767Z,3.20
2018-08-31T15:51:14.943Z,3.50
2018-08-31T15:56:17.151Z,3.53
2018-08-31T16:01:19.340Z,3.47
2018-08-31T16:06:21.503Z,3.13
2018-08-31T16:11:23.893Z,3.03
2018-08-31T16:16:26.079Z,3.30
2018-08-31T16:21:28.257Z,3.13
2018-08-31T16:26:30.516Z,3.53
2018-08-31T16:31:32.742Z,3.23
2018-08-31T16:36:34.935Z,3.27
2018-08-31T16:41:37.406Z,3.17
2018-08-31T16:46:39.600Z,3.10
2018-08-31T16:51:41.785Z,3.60
2018-08-31T16:56:44.032Z,3.57
2018-08-31T17:01:46.209Z,4.00
2018-08-31T17:06:48.378Z,3.40
2018-08-31T17:11:50.491Z,3.63
2018-08-31T17:16:52.689Z,2.77
2018-08-31T17:21:54.860Z,2.87
2018-08-31T17:27:03.068Z,2.30
2018-08-31T17:32:11.075Z,3.10
2018-08-31T17:37:19.090Z,2.90
2018-08-31T17:42:21.514Z,2.77
2018-08-31T17:47:23.738Z,3.03
2018-08-31T17:52:25.946Z,2.23
2018-08-31T17:57:28.219Z,3.23
2018-08-31T18:02:30.406Z,2.87
2018-08-31T18:07:33.451Z,2.73
2018-08-31T18:12:35.809Z,3.37
2018-08-31T18:17:38.022Z,2.90
2018-08-31T18:22:40.252Z,2.97
2018-08-31T18:27:42.451Z,3.20
2018-08-31T18:32:44.643Z,2.97
2018-08-31T18:37:47.048Z,3.53
2018-08-31T18:42:49.303Z,4.13
2018-08-31T18:47:51.575Z,3.43
2018-08-31T18:52:53.835Z,3.17
2018-08-31T18:57:56.223Z,3.57
2018-08-31T19:02:58.520Z,2.60
2018-08-31T19:08:01.426Z,2.60
2018-08-31T19:13:03.738Z,3.03
2018-08-31T19:18:06.023Z,3.60
2018-08-31T19:23:08.355Z,3.40
2018-08-31T19:28:10.596Z,2.73
2018-08-31T19:33:13.449Z,2.73
2018-08-31T19:38:15.703Z,3.03
2018-08-31T19:43:17.873Z,2.80
2018-08-31T19:48:20.162Z,3.07
2018-08-31T19:53:22.394Z,3.00
2018-08-31T19:58:24.639Z,3.07
2018-08-31T20:03:27.257Z,2.90
2018-08-31T20:08:30.144Z,3.57
2018-08-31T20:13:32.368Z,3.30
2018-08-31T20:18:34.884Z,2.70
2018-08-31T20:23:37.179Z,3.37
2018-08-31T20:28:39.392Z,3.20
2018-08-31T20:33:41.566Z,3.57
2018-08-31T20:38:44.190Z,2.97
2018-08-31T20:43:46.312Z,2.70
2018-08-31T20:48:48.466Z,3.30
2018-08-31T20:53:50.676Z,2.83
2018-08-31T20:58:52.847Z,2.93
2018-08-31T21:03:55.868Z,3.57
2018-08-31T21:08:58.071Z,3.30
2018-08-31T21:14:00.206Z,3.00
2018-08-31T21:19:02.504Z,3.03
2018-08-31T21:24:04.714Z,2.70
2018-08-31T21:29:06.904Z,3.70
2018-08-31T21:34:09.168Z,3.00
2018-08-31T21:39:11.340Z,4.00
2018-08-31T21:44:13.478Z,3.07
2018-08-31T21:49:15.700Z,3.00
2018-08-31T21:54:17.877Z,3.70
2018-08-31T21:59:20.083Z,3.13
2018-08-31T22:04:24.502Z,3.53
2018-08-31T22:09:27.415Z,3.50
2018-08-31T22:14:29.603Z,3.57
2018-08-31T22:19:31.771Z,2.83
2018-08-31T22:24:33.927Z,3.30
2018-08-31T22:29:36.071Z,3.03
2018-08-31T22:34:38.235Z,3.37
2018-08-31T22:39:40.355Z,3.07
2018-08-31T22:44:42.499Z,3.57
2018-08-31T22:49:44.619Z,2.70
2018-08-31T22:54:46.908Z,3.53
2018-08-31T22:59:49.068Z,2.80
2018-08-31T23:04:51.229Z,2.60
2018-08-31T23:09:53.412Z,3.50
2018-08-31T23:14:55.574Z,2.73
2018-08-31T23:19:58.571Z,3.83
2018-08-31T23:25:01.434Z,2.80
2018-08-31T23:30:03.687Z,3.60
2018-08-31T23:35:05.832Z,3.67
2018-08-31T23:40:08.043Z,2.77
2018-08-31T23:45:10.176Z,3.50
2018-08-31T23:50:12.482Z,3.40
2018-08-31T23:55:14.626Z,3.23
